sensor_id;sensor_type;location;lat;lon;timestamp;P1;durP1;ratioP1;P2;durP2;ratioP2
73980;SDS011;62348;51.412;5.436;2023-09-12T00:02:05;26.60;;;21.52;;
73980;SDS011;62348;51.412;5.436;2023-09-12T00:04:30;28.38;;;22.75;;
73980;SDS011;62348;51.412;5.436;2023-09-12T00:06:56;28.60;;;22.98;;
73980;SDS011;62348;51.412;5.436;2023-09-12T00:09:21;25.60;;;22.27;;
73980;SDS011;62348;51.412;5.436;2023-09-12T00:11:47;30.13;;;23.00;;
73980;SDS011;62348;51.412;5.436;2023-09-12T00:14:16;28.55;;;22.70;;
73980;SDS011;62348;51.412;5.436;2023-09-12T00:16:42;28.45;;;22.02;;
73980;SDS011;62348;51.412;5.436;2023-09-12T00:19:07;25.13;;;20.35;;
73980;SDS011;62348;51.412;5.436;2023-09-12T00:21:33;27.75;;;22.40;;
73980;SDS011;62348;51.412;5.436;2023-09-12T00:23:58;30.23;;;23.50;;
73980;SDS011;62348;51.412;5.436;2023-09-12T00:26:24;24.25;;;21.63;;
73980;SDS011;62348;51.412;5.436;2023-09-12T00:28:49;29.48;;;23.20;;
73980;SDS011;62348;51.412;5.436;2023-09-12T00:31:15;30.08;;;22.15;;
73980;SDS011;62348;51.412;5.436;2023-09-12T00:33:40;30.73;;;21.80;;
73980;SDS011;62348;51.412;5.436;2023-09-12T00:36:05;26.92;;;22.17;;
73980;SDS011;62348;51.412;5.436;2023-09-12T00:38:31;27.65;;;21.90;;
73980;SDS011;62348;51.412;5.436;2023-09-12T00:40:56;26.23;;;21.92;;
73980;SDS011;62348;51.412;5.436;2023-09-12T00:43:22;26.25;;;22.20;;
73980;SDS011;62348;51.412;5.436;2023-09-12T00:45:47;30.05;;;22.65;;
73980;SDS011;62348;51.412;5.436;2023-09-12T00:48:12;27.38;;;21.25;;
73980;SDS011;62348;51.412;5.436;2023-09-12T00:50:39;31.42;;;22.23;;
73980;SDS011;62348;51.412;5.436;2023-09-12T00:53:06;26.08;;;21.67;;
73980;SDS011;62348;51.412;5.436;2023-09-12T00:55:32;30.50;;;21.17;;
73980;SDS011;62348;51.412;5.436;2023-09-12T00:58:00;28.40;;;22.27;;
73980;SDS011;62348;51.412;5.436;2023-09-12T01:00:26;30.95;;;21.85;;
73980;SDS011;62348;51.412;5.436;2023-09-12T01:02:52;28.45;;;21.70;;
73980;SDS011;62348;51.412;5.436;2023-09-12T01:05:19;29.08;;;22.02;;
73980;SDS011;62348;51.412;5.436;2023-09-12T01:07:46;29.55;;;22.90;;
73980;SDS011;62348;51.412;5.436;2023-09-12T01:10:11;26.52;;;21.95;;
73980;SDS011;62348;51.412;5.436;2023-09-12T01:12:37;32.65;;;23.88;;
73980;SDS011;62348;51.412;5.436;2023-09-12T01:15:03;28.80;;;22.80;;
73980;SDS011;62348;51.412;5.436;2023-09-12T01:17:33;27.38;;;21.95;;
73980;SDS011;62348;51.412;5.436;2023-09-12T01:19:59;28.70;;;23.17;;
73980;SDS011;62348;51.412;5.436;2023-09-12T01:28:08;28.60;;;22.45;;
73980;SDS011;62348;51.412;5.436;2023-09-12T01:30:35;27.60;;;22.60;;
73980;SDS011;62348;51.412;5.436;2023-09-12T01:33:04;28.05;;;22.17;;
73980;SDS011;62348;51.412;5.436;2023-09-12T01:35:29;26.27;;;22.73;;
73980;SDS011;62348;51.412;5.436;2023-09-12T01:37:55;25.75;;;21.85;;
73980;SDS011;62348;51.412;5.436;2023-09-12T01:40:23;28.08;;;21.90;;
73980;SDS011;62348;51.412;5.436;2023-09-12T01:43:07;31.02;;;22.27;;
73980;SDS011;62348;51.412;5.436;2023-09-12T01:45:33;27.67;;;21.58;;
73980;SDS011;62348;51.412;5.436;2023-09-12T01:48:00;27.98;;;20.67;;
73980;SDS011;62348;51.412;5.436;2023-09-12T01:50:26;27.08;;;22.35;;
73980;SDS011;62348;51.412;5.436;2023-09-12T01:52:53;25.40;;;19.85;;
73980;SDS011;62348;51.412;5.436;2023-09-12T01:55:19;26.00;;;20.27;;
73980;SDS011;62348;51.412;5.436;2023-09-12T01:57:46;32.13;;;20.63;;
73980;SDS011;62348;51.412;5.436;2023-09-12T02:00:12;26.45;;;21.80;;
73980;SDS011;62348;51.412;5.436;2023-09-12T02:02:38;26.75;;;20.63;;
73980;SDS011;62348;51.412;5.436;2023-09-12T02:05:16;27.67;;;20.67;;
73980;SDS011;62348;51.412;5.436;2023-09-12T02:07:45;28.23;;;21.98;;
73980;SDS011;62348;51.412;5.436;2023-09-12T02:10:11;28.75;;;21.05;;
73980;SDS011;62348;51.412;5.436;2023-09-12T02:12:37;30.00;;;22.05;;
73980;SDS011;62348;51.412;5.436;2023-09-12T02:15:03;27.33;;;19.73;;
73980;SDS011;62348;51.412;5.436;2023-09-12T02:17:29;28.83;;;21.75;;
73980;SDS011;62348;51.412;5.436;2023-09-12T02:19:54;25.23;;;21.33;;
73980;SDS011;62348;51.412;5.436;2023-09-12T02:22:20;27.55;;;19.75;;
73980;SDS011;62348;51.412;5.436;2023-09-12T02:24:45;28.13;;;20.17;;
73980;SDS011;62348;51.412;5.436;2023-09-12T02:27:10;26.90;;;21.45;;
73980;SDS011;62348;51.412;5.436;2023-09-12T02:29:38;26.77;;;21.60;;
73980;SDS011;62348;51.412;5.436;2023-09-12T02:32:04;24.83;;;19.85;;
73980;SDS011;62348;51.412;5.436;2023-09-12T02:34:30;28.15;;;20.95;;
73980;SDS011;62348;51.412;5.436;2023-09-12T02:36:55;26.13;;;21.10;;
73980;SDS011;62348;51.412;5.436;2023-09-12T02:39:21;26.98;;;21.23;;
73980;SDS011;62348;51.412;5.436;2023-09-12T02:41:46;27.42;;;22.35;;
73980;SDS011;62348;51.412;5.436;2023-09-12T02:44:11;29.30;;;21.92;;
73980;SDS011;62348;51.412;5.436;2023-09-12T02:46:37;26.52;;;20.73;;
73980;SDS011;62348;51.412;5.436;2023-09-12T02:49:02;28.90;;;20.27;;
73980;SDS011;62348;51.412;5.436;2023-09-12T02:51:28;31.52;;;20.90;;
73980;SDS011;62348;51.412;5.436;2023-09-12T02:53:54;23.25;;;19.38;;
73980;SDS011;62348;51.412;5.436;2023-09-12T02:56:19;26.02;;;19.77;;
73980;SDS011;62348;51.412;5.436;2023-09-12T02:58:48;24.13;;;19.92;;
73980;SDS011;62348;51.412;5.436;2023-09-12T03:01:17;29.55;;;21.75;;
73980;SDS011;62348;51.412;5.436;2023-09-12T03:03:46;24.88;;;20.45;;
73980;SDS011;62348;51.412;5.436;2023-09-12T03:06:12;25.00;;;20.50;;
73980;SDS011;62348;51.412;5.436;2023-09-12T03:08:39;24.67;;;20.60;;
73980;SDS011;62348;51.412;5.436;2023-09-12T03:11:05;25.30;;;18.73;;
73980;SDS011;62348;51.412;5.436;2023-09-12T03:13:32;27.63;;;20.50;;
73980;SDS011;62348;51.412;5.436;2023-09-12T03:15:58;24.25;;;19.20;;
73980;SDS011;62348;51.412;5.436;2023-09-12T03:18:23;28.88;;;20.25;;
73980;SDS011;62348;51.412;5.436;2023-09-12T03:20:49;28.52;;;20.23;;
73980;SDS011;62348;51.412;5.436;2023-09-12T03:23:14;30.92;;;20.33;;
73980;SDS011;62348;51.412;5.436;2023-09-12T03:25:40;24.63;;;18.98;;
73980;SDS011;62348;51.412;5.436;2023-09-12T03:28:05;26.92;;;20.25;;
73980;SDS011;62348;51.412;5.436;2023-09-12T03:30:35;24.17;;;19.50;;
73980;SDS011;62348;51.412;5.436;2023-09-12T03:33:01;25.50;;;19.67;;
73980;SDS011;62348;51.412;5.436;2023-09-12T03:35:33;26.85;;;20.70;;
73980;SDS011;62348;51.412;5.436;2023-09-12T03:37:59;28.30;;;19.13;;
73980;SDS011;62348;51.412;5.436;2023-09-12T03:40:25;21.40;;;18.83;;
73980;SDS011;62348;51.412;5.436;2023-09-12T03:42:50;24.30;;;19.15;;
73980;SDS011;62348;51.412;5.436;2023-09-12T03:45:16;25.23;;;18.48;;
73980;SDS011;62348;51.412;5.436;2023-09-12T03:47:41;24.88;;;19.63;;
73980;SDS011;62348;51.412;5.436;2023-09-12T03:50:07;25.92;;;19.00;;
73980;SDS011;62348;51.412;5.436;2023-09-12T03:52:33;25.85;;;18.65;;
73980;SDS011;62348;51.412;5.436;2023-09-12T03:54:58;21.58;;;18.90;;
73980;SDS011;62348;51.412;5.436;2023-09-12T03:57:25;25.52;;;18.08;;
73980;SDS011;62348;51.412;5.436;2023-09-12T03:59:51;23.63;;;17.85;;
73980;SDS011;62348;51.412;5.436;2023-09-12T04:02:17;26.42;;;19.05;;
73980;SDS011;62348;51.412;5.436;2023-09-12T04:04:43;25.98;;;17.92;;
73980;SDS011;62348;51.412;5.436;2023-09-12T04:07:08;23.58;;;19.08;;
73980;SDS011;62348;51.412;5.436;2023-09-12T04:09:33;25.67;;;20.60;;
73980;SDS011;62348;51.412;5.436;2023-09-12T04:11:59;34.22;;;27.02;;
73980;SDS011;62348;51.412;5.436;2023-09-12T04:14:24;29.85;;;25.05;;
73980;SDS011;62348;51.412;5.436;2023-09-12T04:16:49;36.30;;;26.70;;
73980;SDS011;62348;51.412;5.436;2023-09-12T04:19:15;37.78;;;28.23;;
73980;SDS011;62348;51.412;5.436;2023-09-12T04:21:40;34.13;;;25.70;;
73980;SDS011;62348;51.412;5.436;2023-09-12T04:24:06;34.88;;;26.70;;
73980;SDS011;62348;51.412;5.436;2023-09-12T04:26:32;34.40;;;27.30;;
73980;SDS011;62348;51.412;5.436;2023-09-12T04:28:58;38.85;;;27.60;;
73980;SDS011;62348;51.412;5.436;2023-09-12T04:31:23;39.65;;;30.58;;
73980;SDS011;62348;51.412;5.436;2023-09-12T04:33:52;35.45;;;29.15;;
73980;SDS011;62348;51.412;5.436;2023-09-12T04:36:18;35.83;;;29.17;;
73980;SDS011;62348;51.412;5.436;2023-09-12T04:38:44;39.63;;;29.73;;
73980;SDS011;62348;51.412;5.436;2023-09-12T04:41:11;39.90;;;29.17;;
73980;SDS011;62348;51.412;5.436;2023-09-12T04:43:40;31.55;;;26.33;;
73980;SDS011;62348;51.412;5.436;2023-09-12T04:46:06;32.28;;;26.23;;
73980;SDS011;62348;51.412;5.436;2023-09-12T04:48:31;32.83;;;25.65;;
73980;SDS011;62348;51.412;5.436;2023-09-12T04:50:57;31.98;;;24.52;;
73980;SDS011;62348;51.412;5.436;2023-09-12T04:53:22;31.23;;;23.10;;
73980;SDS011;62348;51.412;5.436;2023-09-12T04:55:48;30.77;;;23.58;;
73980;SDS011;62348;51.412;5.436;2023-09-12T04:58:13;28.60;;;22.70;;
73980;SDS011;62348;51.412;5.436;2023-09-12T05:00:39;31.17;;;25.42;;
73980;SDS011;62348;51.412;5.436;2023-09-12T05:03:05;32.67;;;23.58;;
73980;SDS011;62348;51.412;5.436;2023-09-12T05:05:31;32.60;;;23.70;;
73980;SDS011;62348;51.412;5.436;2023-09-12T05:08:00;30.80;;;23.75;;
73980;SDS011;62348;51.412;5.436;2023-09-12T05:10:25;26.70;;;22.38;;
73980;SDS011;62348;51.412;5.436;2023-09-12T05:12:51;28.42;;;22.35;;
73980;SDS011;62348;51.412;5.436;2023-09-12T05:15:16;29.85;;;22.20;;
73980;SDS011;62348;51.412;5.436;2023-09-12T05:17:41;33.33;;;23.35;;
73980;SDS011;62348;51.412;5.436;2023-09-12T05:20:07;29.75;;;22.63;;
73980;SDS011;62348;51.412;5.436;2023-09-12T05:22:33;27.48;;;21.88;;
73980;SDS011;62348;51.412;5.436;2023-09-12T05:24:58;27.08;;;21.10;;
73980;SDS011;62348;51.412;5.436;2023-09-12T05:27:23;27.23;;;21.70;;
73980;SDS011;62348;51.412;5.436;2023-09-12T05:29:49;28.48;;;21.70;;
73980;SDS011;62348;51.412;5.436;2023-09-12T05:32:14;29.52;;;22.48;;
73980;SDS011;62348;51.412;5.436;2023-09-12T05:34:41;29.80;;;23.25;;
73980;SDS011;62348;51.412;5.436;2023-09-12T05:37:07;30.00;;;23.42;;
73980;SDS011;62348;51.412;5.436;2023-09-12T05:39:32;32.90;;;25.95;;
73980;SDS011;62348;51.412;5.436;2023-09-12T05:41:57;35.92;;;26.67;;
73980;SDS011;62348;51.412;5.436;2023-09-12T05:44:23;31.10;;;25.35;;
73980;SDS011;62348;51.412;5.436;2023-09-12T05:46:48;33.30;;;26.83;;
73980;SDS011;62348;51.412;5.436;2023-09-12T05:49:14;35.60;;;26.52;;
73980;SDS011;62348;51.412;5.436;2023-09-12T05:51:40;35.53;;;27.05;;
73980;SDS011;62348;51.412;5.436;2023-09-12T05:54:06;35.50;;;25.23;;
73980;SDS011;62348;51.412;5.436;2023-09-12T05:56:33;37.33;;;26.25;;
73980;SDS011;62348;51.412;5.436;2023-09-12T05:58:58;32.35;;;25.85;;
73980;SDS011;62348;51.412;5.436;2023-09-12T06:01:24;30.65;;;24.98;;
73980;SDS011;62348;51.412;5.436;2023-09-12T06:03:49;33.70;;;25.27;;
73980;SDS011;62348;51.412;5.436;2023-09-12T06:06:15;35.60;;;25.63;;
73980;SDS011;62348;51.412;5.436;2023-09-12T06:08:40;35.03;;;26.00;;
73980;SDS011;62348;51.412;5.436;2023-09-12T06:11:06;35.83;;;25.15;;
73980;SDS011;62348;51.412;5.436;2023-09-12T06:13:31;32.88;;;25.25;;
73980;SDS011;62348;51.412;5.436;2023-09-12T06:15:57;33.08;;;24.27;;
73980;SDS011;62348;51.412;5.436;2023-09-12T06:18:23;33.72;;;24.73;;
73980;SDS011;62348;51.412;5.436;2023-09-12T06:20:49;32.72;;;25.30;;
73980;SDS011;62348;51.412;5.436;2023-09-12T06:23:15;33.22;;;24.80;;
73980;SDS011;62348;51.412;5.436;2023-09-12T06:25:40;32.70;;;25.20;;
73980;SDS011;62348;51.412;5.436;2023-09-12T06:28:08;36.72;;;25.98;;
73980;SDS011;62348;51.412;5.436;2023-09-12T06:30:34;34.67;;;25.05;;
73980;SDS011;62348;51.412;5.436;2023-09-12T06:33:00;38.67;;;27.08;;
73980;SDS011;62348;51.412;5.436;2023-09-12T06:35:25;36.47;;;26.40;;
73980;SDS011;62348;51.412;5.436;2023-09-12T06:37:51;38.88;;;26.20;;
73980;SDS011;62348;51.412;5.436;2023-09-12T06:40:16;39.75;;;25.17;;
73980;SDS011;62348;51.412;5.436;2023-09-12T06:42:42;35.13;;;25.23;;
73980;SDS011;62348;51.412;5.436;2023-09-12T06:45:08;32.30;;;23.73;;
73980;SDS011;62348;51.412;5.436;2023-09-12T06:47:34;35.72;;;24.27;;
73980;SDS011;62348;51.412;5.436;2023-09-12T06:49:59;35.55;;;25.83;;
73980;SDS011;62348;51.412;5.436;2023-09-12T06:52:24;35.22;;;25.70;;
73980;SDS011;62348;51.412;5.436;2023-09-12T06:54:50;30.00;;;23.83;;
73980;SDS011;62348;51.412;5.436;2023-09-12T06:57:15;37.03;;;25.20;;
73980;SDS011;62348;51.412;5.436;2023-09-12T06:59:41;35.55;;;26.20;;
73980;SDS011;62348;51.412;5.436;2023-09-12T07:02:06;36.80;;;24.08;;
73980;SDS011;62348;51.412;5.436;2023-09-12T07:04:32;33.17;;;24.55;;
73980;SDS011;62348;51.412;5.436;2023-09-12T07:06:58;31.30;;;24.05;;
73980;SDS011;62348;51.412;5.436;2023-09-12T07:09:23;34.35;;;25.75;;
73980;SDS011;62348;51.412;5.436;2023-09-12T07:11:49;33.47;;;25.73;;
73980;SDS011;62348;51.412;5.436;2023-09-12T07:14:14;33.67;;;25.45;;
73980;SDS011;62348;51.412;5.436;2023-09-12T07:16:40;36.60;;;26.13;;
73980;SDS011;62348;51.412;5.436;2023-09-12T07:19:05;35.33;;;26.48;;
73980;SDS011;62348;51.412;5.436;2023-09-12T07:21:31;33.25;;;26.27;;
73980;SDS011;62348;51.412;5.436;2023-09-12T07:23:57;31.90;;;24.95;;
73980;SDS011;62348;51.412;5.436;2023-09-12T07:26:23;35.55;;;26.13;;
73980;SDS011;62348;51.412;5.436;2023-09-12T07:28:48;30.10;;;24.17;;
73980;SDS011;62348;51.412;5.436;2023-09-12T07:31:14;32.15;;;24.83;;
73980;SDS011;62348;51.412;5.436;2023-09-12T07:33:39;32.88;;;23.58;;
73980;SDS011;62348;51.412;5.436;2023-09-12T07:36:06;29.95;;;23.95;;
73980;SDS011;62348;51.412;5.436;2023-09-12T07:38:31;33.22;;;25.52;;
73980;SDS011;62348;51.412;5.436;2023-09-12T07:40:57;32.78;;;24.92;;
73980;SDS011;62348;51.412;5.436;2023-09-12T07:43:23;32.97;;;25.60;;
73980;SDS011;62348;51.412;5.436;2023-09-12T07:45:49;35.33;;;26.98;;
73980;SDS011;62348;51.412;5.436;2023-09-12T07:48:19;31.17;;;23.92;;
73980;SDS011;62348;51.412;5.436;2023-09-12T07:50:45;28.45;;;22.92;;
73980;SDS011;62348;51.412;5.436;2023-09-12T07:53:10;26.25;;;20.08;;
73980;SDS011;62348;51.412;5.436;2023-09-12T07:55:36;22.60;;;18.27;;
73980;SDS011;62348;51.412;5.436;2023-09-12T07:58:10;19.63;;;15.73;;
73980;SDS011;62348;51.412;5.436;2023-09-12T08:00:36;18.85;;;15.27;;
73980;SDS011;62348;51.412;5.436;2023-09-12T08:03:02;16.30;;;13.40;;
73980;SDS011;62348;51.412;5.436;2023-09-12T08:05:27;17.50;;;12.95;;
73980;SDS011;62348;51.412;5.436;2023-09-12T08:07:53;14.80;;;12.27;;
73980;SDS011;62348;51.412;5.436;2023-09-12T08:10:18;13.00;;;11.48;;
73980;SDS011;62348;51.412;5.436;2023-09-12T08:12:44;17.13;;;13.00;;
73980;SDS011;62348;51.412;5.436;2023-09-12T08:15:09;19.60;;;13.93;;
73980;SDS011;62348;51.412;5.436;2023-09-12T08:17:35;16.67;;;13.05;;
73980;SDS011;62348;51.412;5.436;2023-09-12T08:20:00;15.45;;;12.02;;
73980;SDS011;62348;51.412;5.436;2023-09-12T08:22:26;16.55;;;11.68;;
73980;SDS011;62348;51.412;5.436;2023-09-12T08:24:53;13.50;;;10.48;;
73980;SDS011;62348;51.412;5.436;2023-09-12T08:27:18;13.95;;;10.52;;
73980;SDS011;62348;51.412;5.436;2023-09-12T08:29:43;13.93;;;11.00;;
73980;SDS011;62348;51.412;5.436;2023-09-12T08:32:11;14.45;;;10.88;;
73980;SDS011;62348;51.412;5.436;2023-09-12T08:34:37;14.43;;;11.32;;
73980;SDS011;62348;51.412;5.436;2023-09-12T08:37:02;9.30;;;8.40;;
73980;SDS011;62348;51.412;5.436;2023-09-12T08:39:38;11.35;;;8.82;;
73980;SDS011;62348;51.412;5.436;2023-09-12T08:42:06;11.48;;;9.40;;
73980;SDS011;62348;51.412;5.436;2023-09-12T08:44:36;9.75;;;7.78;;
73980;SDS011;62348;51.412;5.436;2023-09-12T08:47:02;9.52;;;8.40;;
73980;SDS011;62348;51.412;5.436;2023-09-12T08:49:30;10.13;;;8.52;;
73980;SDS011;62348;51.412;5.436;2023-09-12T08:51:58;9.65;;;8.20;;
73980;SDS011;62348;51.412;5.436;2023-09-12T08:54:23;10.10;;;7.95;;
73980;SDS011;62348;51.412;5.436;2023-09-12T08:56:49;10.80;;;8.23;;
73980;SDS011;62348;51.412;5.436;2023-09-12T08:59:15;10.45;;;6.78;;
73980;SDS011;62348;51.412;5.436;2023-09-12T09:01:41;6.97;;;6.03;;
73980;SDS011;62348;51.412;5.436;2023-09-12T09:04:08;8.55;;;7.32;;
73980;SDS011;62348;51.412;5.436;2023-09-12T09:06:33;7.47;;;6.47;;
73980;SDS011;62348;51.412;5.436;2023-09-12T09:09:02;8.15;;;6.10;;
73980;SDS011;62348;51.412;5.436;2023-09-12T09:11:30;8.25;;;6.50;;
73980;SDS011;62348;51.412;5.436;2023-09-12T09:13:55;10.57;;;6.90;;
73980;SDS011;62348;51.412;5.436;2023-09-12T09:16:21;8.20;;;6.15;;
73980;SDS011;62348;51.412;5.436;2023-09-12T09:18:58;6.50;;;5.70;;
73980;SDS011;62348;51.412;5.436;2023-09-12T09:21:30;6.07;;;5.25;;
73980;SDS011;62348;51.412;5.436;2023-09-12T09:24:01;7.70;;;6.18;;
73980;SDS011;62348;51.412;5.436;2023-09-12T09:26:43;8.00;;;6.90;;
73980;SDS011;62348;51.412;5.436;2023-09-12T09:29:13;12.25;;;9.15;;
73980;SDS011;62348;51.412;5.436;2023-09-12T09:31:41;10.95;;;8.80;;
73980;SDS011;62348;51.412;5.436;2023-09-12T09:34:10;11.70;;;9.55;;
73980;SDS011;62348;51.412;5.436;2023-09-12T09:36:43;14.55;;;11.48;;
73980;SDS011;62348;51.412;5.436;2023-09-12T09:39:11;24.95;;;11.48;;
73980;SDS011;62348;51.412;5.436;2023-09-12T09:41:38;20.52;;;14.13;;
73980;SDS011;62348;51.412;5.436;2023-09-12T09:44:07;19.52;;;14.90;;
73980;SDS011;62348;51.412;5.436;2023-09-12T09:46:34;18.52;;;14.02;;
73980;SDS011;62348;51.412;5.436;2023-09-12T09:49:00;19.08;;;15.73;;
73980;SDS011;62348;51.412;5.436;2023-09-12T09:51:26;20.65;;;16.38;;
73980;SDS011;62348;51.412;5.436;2023-09-12T09:53:52;21.08;;;16.38;;
73980;SDS011;62348;51.412;5.436;2023-09-12T09:56:22;24.98;;;18.00;;
73980;SDS011;62348;51.412;5.436;2023-09-12T09:58:48;20.45;;;15.65;;
73980;SDS011;62348;51.412;5.436;2023-09-12T10:01:20;23.52;;;16.50;;
73980;SDS011;62348;51.412;5.436;2023-09-12T10:03:55;22.27;;;17.42;;
73980;SDS011;62348;51.412;5.436;2023-09-12T10:06:23;26.38;;;18.52;;
73980;SDS011;62348;51.412;5.436;2023-09-12T10:08:52;23.02;;;18.52;;
73980;SDS011;62348;51.412;5.436;2023-09-12T10:11:18;24.02;;;18.05;;
73980;SDS011;62348;51.412;5.436;2023-09-12T10:13:54;26.25;;;19.83;;
73980;SDS011;62348;51.412;5.436;2023-09-12T10:16:25;27.85;;;20.05;;
73980;SDS011;62348;51.412;5.436;2023-09-12T10:19:26;26.25;;;21.27;;
73980;SDS011;62348;51.412;5.436;2023-09-12T10:24:40;26.58;;;19.27;;
73980;SDS011;62348;51.412;5.436;2023-09-12T10:27:08;27.38;;;20.67;;
73980;SDS011;62348;51.412;5.436;2023-09-12T10:29:34;23.77;;;17.50;;
73980;SDS011;62348;51.412;5.436;2023-09-12T10:32:00;21.48;;;15.05;;
73980;SDS011;62348;51.412;5.436;2023-09-12T10:34:26;21.05;;;15.77;;
73980;SDS011;62348;51.412;5.436;2023-09-12T10:36:55;20.92;;;16.88;;
73980;SDS011;62348;51.412;5.436;2023-09-12T10:39:22;22.98;;;16.58;;
73980;SDS011;62348;51.412;5.436;2023-09-12T10:41:48;25.60;;;16.55;;
73980;SDS011;62348;51.412;5.436;2023-09-12T10:44:16;20.35;;;16.35;;
73980;SDS011;62348;51.412;5.436;2023-09-12T10:46:43;24.15;;;17.02;;
73980;SDS011;62348;51.412;5.436;2023-09-12T10:49:10;21.63;;;15.07;;
73980;SDS011;62348;51.412;5.436;2023-09-12T10:51:47;20.42;;;16.20;;
73980;SDS011;62348;51.412;5.436;2023-09-12T10:54:14;26.23;;;19.60;;
73980;SDS011;62348;51.412;5.436;2023-09-12T10:56:40;21.40;;;18.27;;
73980;SDS011;62348;51.412;5.436;2023-09-12T11:01:34;27.08;;;19.17;;
73980;SDS011;62348;51.412;5.436;2023-09-12T11:06:46;27.48;;;17.88;;
73980;SDS011;62348;51.412;5.436;2023-09-12T11:09:16;21.33;;;17.08;;
73980;SDS011;62348;51.412;5.436;2023-09-12T11:11:45;21.37;;;14.20;;
73980;SDS011;62348;51.412;5.436;2023-09-12T11:14:14;19.17;;;15.30;;
73980;SDS011;62348;51.412;5.436;2023-09-12T11:16:41;19.83;;;15.75;;
73980;SDS011;62348;51.412;5.436;2023-09-12T11:19:17;21.52;;;15.88;;
73980;SDS011;62348;51.412;5.436;2023-09-12T11:21:44;17.30;;;13.20;;
73980;SDS011;62348;51.412;5.436;2023-09-12T11:24:11;18.80;;;14.73;;
73980;SDS011;62348;51.412;5.436;2023-09-12T11:29:35;21.20;;;14.52;;
73980;SDS011;62348;51.412;5.436;2023-09-12T11:32:03;17.38;;;13.77;;
73980;SDS011;62348;51.412;5.436;2023-09-12T11:34:30;22.73;;;17.60;;
73980;SDS011;62348;51.412;5.436;2023-09-12T11:39:30;22.42;;;16.95;;
73980;SDS011;62348;51.412;5.436;2023-09-12T11:41:57;22.65;;;18.88;;
73980;SDS011;62348;51.412;5.436;2023-09-12T11:44:23;22.88;;;17.33;;
73980;SDS011;62348;51.412;5.436;2023-09-12T11:46:50;19.23;;;15.05;;
73980;SDS011;62348;51.412;5.436;2023-09-12T11:49:17;23.52;;;15.35;;
73980;SDS011;62348;51.412;5.436;2023-09-12T11:54:26;20.02;;;15.43;;
73980;SDS011;62348;51.412;5.436;2023-09-12T11:56:51;19.65;;;16.35;;
73980;SDS011;62348;51.412;5.436;2023-09-12T11:59:31;19.70;;;15.30;;
73980;SDS011;62348;51.412;5.436;2023-09-12T12:01:56;20.88;;;16.58;;
73980;SDS011;62348;51.412;5.436;2023-09-12T12:04:22;19.08;;;16.02;;
73980;SDS011;62348;51.412;5.436;2023-09-12T12:06:50;20.83;;;16.48;;
73980;SDS011;62348;51.412;5.436;2023-09-12T12:09:17;19.63;;;15.50;;
73980;SDS011;62348;51.412;5.436;2023-09-12T12:11:44;17.08;;;14.38;;
73980;SDS011;62348;51.412;5.436;2023-09-12T12:14:13;14.75;;;11.95;;
73980;SDS011;62348;51.412;5.436;2023-09-12T12:16:43;17.63;;;12.98;;
73980;SDS011;62348;51.412;5.436;2023-09-12T12:19:10;18.83;;;13.63;;
73980;SDS011;62348;51.412;5.436;2023-09-12T12:21:37;19.60;;;14.65;;
73980;SDS011;62348;51.412;5.436;2023-09-12T12:24:03;19.85;;;15.18;;
73980;SDS011;62348;51.412;5.436;2023-09-12T12:26:30;20.05;;;14.25;;
73980;SDS011;62348;51.412;5.436;2023-09-12T12:28:56;14.32;;;12.15;;
73980;SDS011;62348;51.412;5.436;2023-09-12T12:31:21;15.07;;;12.48;;
73980;SDS011;62348;51.412;5.436;2023-09-12T12:33:49;12.98;;;10.95;;
73980;SDS011;62348;51.412;5.436;2023-09-12T12:36:18;11.93;;;9.93;;
73980;SDS011;62348;51.412;5.436;2023-09-12T12:38:45;12.85;;;10.52;;
73980;SDS011;62348;51.412;5.436;2023-09-12T12:41:13;13.15;;;11.18;;
73980;SDS011;62348;51.412;5.436;2023-09-12T12:43:40;12.13;;;10.60;;
73980;SDS011;62348;51.412;5.436;2023-09-12T12:46:09;15.55;;;11.13;;
73980;SDS011;62348;51.412;5.436;2023-09-12T12:48:37;15.35;;;11.10;;
73980;SDS011;62348;51.412;5.436;2023-09-12T12:51:13;12.70;;;10.48;;
73980;SDS011;62348;51.412;5.436;2023-09-12T12:56:05;14.57;;;10.50;;
73980;SDS011;62348;51.412;5.436;2023-09-12T12:58:31;14.10;;;10.93;;
73980;SDS011;62348;51.412;5.436;2023-09-12T13:00:56;14.43;;;11.80;;
73980;SDS011;62348;51.412;5.436;2023-09-12T13:03:22;14.57;;;11.68;;
73980;SDS011;62348;51.412;5.436;2023-09-12T13:05:47;13.32;;;11.05;;
73980;SDS011;62348;51.412;5.436;2023-09-12T13:08:12;12.60;;;10.73;;
73980;SDS011;62348;51.412;5.436;2023-09-12T13:10:38;14.63;;;11.52;;
73980;SDS011;62348;51.412;5.436;2023-09-12T13:13:03;12.40;;;9.82;;
73980;SDS011;62348;51.412;5.436;2023-09-12T13:15:29;13.27;;;9.38;;
73980;SDS011;62348;51.412;5.436;2023-09-12T13:17:54;12.45;;;10.27;;
73980;SDS011;62348;51.412;5.436;2023-09-12T13:20:20;11.93;;;9.90;;
73980;SDS011;62348;51.412;5.436;2023-09-12T13:22:45;14.80;;;10.18;;
73980;SDS011;62348;51.412;5.436;2023-09-12T13:25:11;11.80;;;10.27;;
73980;SDS011;62348;51.412;5.436;2023-09-12T13:27:36;11.57;;;10.20;;
73980;SDS011;62348;51.412;5.436;2023-09-12T13:30:02;11.50;;;10.30;;
73980;SDS011;62348;51.412;5.436;2023-09-12T13:32:29;12.05;;;10.82;;
73980;SDS011;62348;51.412;5.436;2023-09-12T13:34:55;16.20;;;12.85;;
73980;SDS011;62348;51.412;5.436;2023-09-12T13:37:20;14.65;;;12.10;;
73980;SDS011;62348;51.412;5.436;2023-09-12T13:39:46;13.38;;;11.80;;
73980;SDS011;62348;51.412;5.436;2023-09-12T13:42:15;14.82;;;12.50;;
73980;SDS011;62348;51.412;5.436;2023-09-12T13:44:47;13.75;;;11.35;;
73980;SDS011;62348;51.412;5.436;2023-09-12T13:47:13;13.10;;;10.57;;
73980;SDS011;62348;51.412;5.436;2023-09-12T13:49:46;10.07;;;9.13;;
73980;SDS011;62348;51.412;5.436;2023-09-12T13:52:11;12.40;;;10.52;;
73980;SDS011;62348;51.412;5.436;2023-09-12T13:54:36;10.90;;;9.80;;
73980;SDS011;62348;51.412;5.436;2023-09-12T13:57:02;11.15;;;8.93;;
73980;SDS011;62348;51.412;5.436;2023-09-12T13:59:27;11.70;;;9.35;;
73980;SDS011;62348;51.412;5.436;2023-09-12T14:01:53;14.05;;;10.15;;
73980;SDS011;62348;51.412;5.436;2023-09-12T14:04:18;12.10;;;10.40;;
73980;SDS011;62348;51.412;5.436;2023-09-12T14:06:44;10.88;;;9.20;;
73980;SDS011;62348;51.412;5.436;2023-09-12T14:09:09;12.90;;;8.60;;
73980;SDS011;62348;51.412;5.436;2023-09-12T14:11:34;11.30;;;9.38;;
73980;SDS011;62348;51.412;5.436;2023-09-12T14:14:00;12.80;;;10.07;;
73980;SDS011;62348;51.412;5.436;2023-09-12T14:16:26;11.00;;;9.45;;
73980;SDS011;62348;51.412;5.436;2023-09-12T14:18:52;10.13;;;8.43;;
73980;SDS011;62348;51.412;5.436;2023-09-12T14:21:17;9.85;;;8.43;;
73980;SDS011;62348;51.412;5.436;2023-09-12T14:23:42;11.02;;;8.93;;
73980;SDS011;62348;51.412;5.436;2023-09-12T14:26:08;10.43;;;9.35;;
73980;SDS011;62348;51.412;5.436;2023-09-12T14:28:33;10.63;;;9.52;;
73980;SDS011;62348;51.412;5.436;2023-09-12T14:30:59;14.15;;;9.63;;
73980;SDS011;62348;51.412;5.436;2023-09-12T14:33:26;14.13;;;9.60;;
73980;SDS011;62348;51.412;5.436;2023-09-12T14:35:51;11.75;;;9.25;;
73980;SDS011;62348;51.412;5.436;2023-09-12T14:38:16;11.38;;;9.20;;
73980;SDS011;62348;51.412;5.436;2023-09-12T14:40:42;10.68;;;9.07;;
73980;SDS011;62348;51.412;5.436;2023-09-12T14:43:07;11.77;;;8.82;;
73980;SDS011;62348;51.412;5.436;2023-09-12T14:45:33;10.20;;;8.65;;